sensor_id;sensor_type;location;lat;lon;timestamp;P1;durP1;ratioP1;P2;durP2;ratioP2
8540;SDS011;4308;51.294;6.590;2023-03-15T00:00:37;13.10;;;4.17;;
8540;SDS011;4308;51.294;6.590;2023-03-15T00:03:04;8.43;;;3.13;;
8540;SDS011;4308;51.294;6.590;2023-03-15T00:05:32;10.60;;;3.27;;
8540;SDS011;4308;51.294;6.590;2023-03-15T00:08:00;11.83;;;4.43;;
8540;SDS011;4308;51.294;6.590;2023-03-15T00:10:30;9.00;;;3.87;;
8540;SDS011;4308;51.294;6.590;2023-03-15T00:12:57;11.13;;;4.27;;
8540;SDS011;4308;51.294;6.590;2023-03-15T00:15:25;6.27;;;3.40;;
8540;SDS011;4308;51.294;6.590;2023-03-15T00:17:53;9.27;;;3.60;;
8540;SDS011;4308;51.294;6.590;2023-03-15T00:20:21;11.37;;;3.77;;
8540;SDS011;4308;51.294;6.590;2023-03-15T00:22:51;7.07;;;3.03;;
8540;SDS011;4308;51.294;6.590;2023-03-15T00:25:26;10.37;;;2.90;;
8540;SDS011;4308;51.294;6.590;2023-03-15T00:27:53;5.00;;;2.73;;
8540;SDS011;4308;51.294;6.590;2023-03-15T00:30:21;9.20;;;2.73;;
8540;SDS011;4308;51.294;6.590;2023-03-15T00:32:51;10.87;;;3.67;;
8540;SDS011;4308;51.294;6.590;2023-03-15T00:35:28;5.37;;;2.33;;
8540;SDS011;4308;51.294;6.590;2023-03-15T00:38:00;6.90;;;3.30;;
8540;SDS011;4308;51.294;6.590;2023-03-15T00:40:29;4.67;;;2.60;;
8540;SDS011;4308;51.294;6.590;2023-03-15T00:43:06;5.00;;;2.70;;
8540;SDS011;4308;51.294;6.590;2023-03-15T00:45:39;8.70;;;2.83;;
8540;SDS011;4308;51.294;6.590;2023-03-15T00:48:11;10.17;;;3.40;;
8540;SDS011;4308;51.294;6.590;2023-03-15T00:50:50;10.77;;;2.97;;
8540;SDS011;4308;51.294;6.590;2023-03-15T00:53:21;7.90;;;3.30;;
8540;SDS011;4308;51.294;6.590;2023-03-15T00:55:51;7.03;;;3.37;;
8540;SDS011;4308;51.294;6.590;2023-03-15T00:58:20;7.87;;;3.73;;
8540;SDS011;4308;51.294;6.590;2023-03-15T01:00:56;7.23;;;3.43;;
8540;SDS011;4308;51.294;6.590;2023-03-15T01:03:30;6.93;;;3.53;;
8540;SDS011;4308;51.294;6.590;2023-03-15T01:06:06;6.77;;;3.00;;
8540;SDS011;4308;51.294;6.590;2023-03-15T01:08:43;9.33;;;3.90;;
8540;SDS011;4308;51.294;6.590;2023-03-15T01:11:13;8.13;;;4.23;;
8540;SDS011;4308;51.294;6.590;2023-03-15T01:13:44;11.10;;;4.17;;
8540;SDS011;4308;51.294;6.590;2023-03-15T01:16:12;8.60;;;3.93;;
8540;SDS011;4308;51.294;6.590;2023-03-15T01:18:43;10.43;;;4.53;;
8540;SDS011;4308;51.294;6.590;2023-03-15T01:21:13;10.13;;;4.93;;
8540;SDS011;4308;51.294;6.590;2023-03-15T01:23:45;12.43;;;4.63;;
8540;SDS011;4308;51.294;6.590;2023-03-15T01:26:14;8.80;;;5.03;;
8540;SDS011;4308;51.294;6.590;2023-03-15T01:28:46;8.33;;;4.93;;
8540;SDS011;4308;51.294;6.590;2023-03-15T01:31:19;13.80;;;5.73;;
8540;SDS011;4308;51.294;6.590;2023-03-15T01:33:48;13.20;;;6.17;;
8540;SDS011;4308;51.294;6.590;2023-03-15T01:36:17;14.03;;;6.33;;
8540;SDS011;4308;51.294;6.590;2023-03-15T01:38:49;13.23;;;5.50;;
8540;SDS011;4308;51.294;6.590;2023-03-15T01:41:26;15.47;;;6.43;;
8540;SDS011;4308;51.294;6.590;2023-03-15T01:43:55;13.30;;;6.73;;
8540;SDS011;4308;51.294;6.590;2023-03-15T01:46:25;17.37;;;7.90;;
8540;SDS011;4308;51.294;6.590;2023-03-15T01:56:33;13.30;;;8.27;;
8540;SDS011;4308;51.294;6.590;2023-03-15T01:59:06;16.73;;;9.43;;
8540;SDS011;4308;51.294;6.590;2023-03-15T02:01:37;12.93;;;7.70;;
8540;SDS011;4308;51.294;6.590;2023-03-15T02:04:11;17.47;;;8.87;;
8540;SDS011;4308;51.294;6.590;2023-03-15T02:06:42;14.90;;;8.53;;
8540;SDS011;4308;51.294;6.590;2023-03-15T02:09:15;16.73;;;9.57;;
8540;SDS011;4308;51.294;6.590;2023-03-15T02:11:47;14.57;;;8.80;;
8540;SDS011;4308;51.294;6.590;2023-03-15T02:14:15;14.47;;;7.90;;
8540;SDS011;4308;51.294;6.590;2023-03-15T02:16:43;15.43;;;8.03;;
8540;SDS011;4308;51.294;6.590;2023-03-15T02:19:17;18.43;;;8.63;;
8540;SDS011;4308;51.294;6.590;2023-03-15T02:21:58;14.63;;;6.93;;
8540;SDS011;4308;51.294;6.590;2023-03-15T02:26:58;9.20;;;5.73;;
8540;SDS011;4308;51.294;6.590;2023-03-15T02:29:30;9.13;;;5.60;;
8540;SDS011;4308;51.294;6.590;2023-03-15T02:32:02;7.97;;;5.10;;
8540;SDS011;4308;51.294;6.590;2023-03-15T02:34:30;6.63;;;4.40;;
8540;SDS011;4308;51.294;6.590;2023-03-15T02:36:59;6.97;;;4.07;;
8540;SDS011;4308;51.294;6.590;2023-03-15T02:39:31;7.63;;;5.10;;
8540;SDS011;4308;51.294;6.590;2023-03-15T02:41:59;8.87;;;4.97;;
8540;SDS011;4308;51.294;6.590;2023-03-15T02:44:34;6.20;;;4.57;;
8540;SDS011;4308;51.294;6.590;2023-03-15T02:47:05;7.33;;;4.77;;
8540;SDS011;4308;51.294;6.590;2023-03-15T02:49:35;4.40;;;3.93;;
8540;SDS011;4308;51.294;6.590;2023-03-15T02:52:04;7.83;;;3.93;;
8540;SDS011;4308;51.294;6.590;2023-03-15T02:54:32;5.47;;;3.90;;
8540;SDS011;4308;51.294;6.590;2023-03-15T02:57:00;6.40;;;4.00;;
8540;SDS011;4308;51.294;6.590;2023-03-15T02:59:28;8.27;;;3.63;;
8540;SDS011;4308;51.294;6.590;2023-03-15T03:01:57;4.77;;;3.50;;
8540;SDS011;4308;51.294;6.590;2023-03-15T03:04:24;5.27;;;3.43;;
8540;SDS011;4308;51.294;6.590;2023-03-15T03:06:52;6.50;;;3.37;;
8540;SDS011;4308;51.294;6.590;2023-03-15T03:09:19;5.47;;;4.27;;
8540;SDS011;4308;51.294;6.590;2023-03-15T03:11:47;5.53;;;4.17;;
8540;SDS011;4308;51.294;6.590;2023-03-15T03:14:14;6.40;;;4.80;;
8540;SDS011;4308;51.294;6.590;2023-03-15T03:16:42;5.87;;;4.33;;
8540;SDS011;4308;51.294;6.590;2023-03-15T03:19:10;6.87;;;4.47;;
8540;SDS011;4308;51.294;6.590;2023-03-15T03:21:37;7.70;;;4.90;;
8540;SDS011;4308;51.294;6.590;2023-03-15T03:24:05;7.07;;;4.07;;
8540;SDS011;4308;51.294;6.590;2023-03-15T03:26:32;8.17;;;5.50;;
8540;SDS011;4308;51.294;6.590;2023-03-15T03:29:00;6.63;;;4.90;;
8540;SDS011;4308;51.294;6.590;2023-03-15T03:31:28;7.67;;;5.87;;
8540;SDS011;4308;51.294;6.590;2023-03-15T03:33:55;8.07;;;5.57;;
8540;SDS011;4308;51.294;6.590;2023-03-15T03:36:23;7.73;;;5.37;;
8540;SDS011;4308;51.294;6.590;2023-03-15T03:38:50;9.13;;;5.93;;
8540;SDS011;4308;51.294;6.590;2023-03-15T03:41:18;8.90;;;5.70;;
8540;SDS011;4308;51.294;6.590;2023-03-15T03:43:46;9.03;;;6.27;;
8540;SDS011;4308;51.294;6.590;2023-03-15T03:46:13;8.50;;;6.63;;
8540;SDS011;4308;51.294;6.590;2023-03-15T03:48:41;12.10;;;7.00;;
8540;SDS011;4308;51.294;6.590;2023-03-15T03:51:09;9.20;;;7.50;;
8540;SDS011;4308;51.294;6.590;2023-03-15T03:53:36;9.73;;;7.60;;
8540;SDS011;4308;51.294;6.590;2023-03-15T03:56:04;13.80;;;7.93;;
8540;SDS011;4308;51.294;6.590;2023-03-15T03:58:32;11.60;;;8.00;;
8540;SDS011;4308;51.294;6.590;2023-03-15T04:01:00;13.20;;;8.97;;
8540;SDS011;4308;51.294;6.590;2023-03-15T04:03:27;12.00;;;8.77;;
8540;SDS011;4308;51.294;6.590;2023-03-15T04:05:57;11.90;;;8.63;;
8540;SDS011;4308;51.294;6.590;2023-03-15T04:08:25;13.17;;;8.67;;
8540;SDS011;4308;51.294;6.590;2023-03-15T04:10:53;12.27;;;8.67;;
8540;SDS011;4308;51.294;6.590;2023-03-15T04:13:21;11.63;;;8.57;;
8540;SDS011;4308;51.294;6.590;2023-03-15T04:15:49;10.97;;;8.67;;
8540;SDS011;4308;51.294;6.590;2023-03-15T04:18:17;12.70;;;8.30;;
8540;SDS011;4308;51.294;6.590;2023-03-15T04:20:46;11.97;;;8.80;;
8540;SDS011;4308;51.294;6.590;2023-03-15T04:23:16;14.40;;;9.80;;
8540;SDS011;4308;51.294;6.590;2023-03-15T04:25:46;11.50;;;8.77;;
8540;SDS011;4308;51.294;6.590;2023-03-15T04:28:14;9.87;;;7.50;;
8540;SDS011;4308;51.294;6.590;2023-03-15T04:30:42;12.13;;;8.40;;
8540;SDS011;4308;51.294;6.590;2023-03-15T04:33:10;14.70;;;8.83;;
8540;SDS011;4308;51.294;6.590;2023-03-15T04:35:38;12.40;;;8.43;;
8540;SDS011;4308;51.294;6.590;2023-03-15T04:38:05;10.10;;;7.13;;
8540;SDS011;4308;51.294;6.590;2023-03-15T04:40:33;7.97;;;6.50;;
8540;SDS011;4308;51.294;6.590;2023-03-15T04:43:01;7.00;;;6.00;;
8540;SDS011;4308;51.294;6.590;2023-03-15T04:45:29;7.50;;;5.77;;
8540;SDS011;4308;51.294;6.590;2023-03-15T04:47:57;8.40;;;6.53;;
8540;SDS011;4308;51.294;6.590;2023-03-15T04:50:25;7.23;;;5.33;;
8540;SDS011;4308;51.294;6.590;2023-03-15T04:52:53;7.93;;;5.33;;
8540;SDS011;4308;51.294;6.590;2023-03-15T04:55:21;6.30;;;5.30;;
8540;SDS011;4308;51.294;6.590;2023-03-15T04:57:48;6.67;;;5.40;;
8540;SDS011;4308;51.294;6.590;2023-03-15T05:00:16;8.43;;;6.30;;
8540;SDS011;4308;51.294;6.590;2023-03-15T05:02:43;7.53;;;5.53;;
8540;SDS011;4308;51.294;6.590;2023-03-15T05:05:11;10.10;;;6.97;;
8540;SDS011;4308;51.294;6.590;2023-03-15T05:07:38;8.47;;;6.90;;
8540;SDS011;4308;51.294;6.590;2023-03-15T05:10:06;10.30;;;7.97;;
8540;SDS011;4308;51.294;6.590;2023-03-15T05:12:34;13.10;;;8.70;;
8540;SDS011;4308;51.294;6.590;2023-03-15T05:15:01;12.03;;;8.93;;
8540;SDS011;4308;51.294;6.590;2023-03-15T05:17:29;11.37;;;8.10;;
8540;SDS011;4308;51.294;6.590;2023-03-15T05:19:56;12.97;;;8.97;;
8540;SDS011;4308;51.294;6.590;2023-03-15T05:22:24;11.70;;;8.97;;
8540;SDS011;4308;51.294;6.590;2023-03-15T05:24:51;14.10;;;9.30;;
8540;SDS011;4308;51.294;6.590;2023-03-15T05:27:19;14.57;;;9.33;;
8540;SDS011;4308;51.294;6.590;2023-03-15T05:29:47;15.17;;;9.63;;
8540;SDS011;4308;51.294;6.590;2023-03-15T05:32:14;14.00;;;9.83;;
8540;SDS011;4308;51.294;6.590;2023-03-15T05:34:42;13.97;;;9.77;;
8540;SDS011;4308;51.294;6.590;2023-03-15T05:37:09;17.10;;;9.73;;
8540;SDS011;4308;51.294;6.590;2023-03-15T05:39:37;13.27;;;10.00;;
8540;SDS011;4308;51.294;6.590;2023-03-15T05:42:04;14.43;;;10.20;;
8540;SDS011;4308;51.294;6.590;2023-03-15T05:44:32;13.50;;;9.83;;
8540;SDS011;4308;51.294;6.590;2023-03-15T05:47:00;13.80;;;10.43;;
8540;SDS011;4308;51.294;6.590;2023-03-15T05:49:27;13.87;;;10.07;;
8540;SDS011;4308;51.294;6.590;2023-03-15T05:51:55;14.97;;;10.50;;
8540;SDS011;4308;51.294;6.590;2023-03-15T05:54:23;15.87;;;10.43;;
8540;SDS011;4308;51.294;6.590;2023-03-15T05:56:50;16.17;;;11.07;;
8540;SDS011;4308;51.294;6.590;2023-03-15T05:59:18;16.17;;;11.07;;
8540;SDS011;4308;51.294;6.590;2023-03-15T06:01:45;14.37;;;10.93;;
8540;SDS011;4308;51.294;6.590;2023-03-15T06:04:13;16.47;;;11.17;;
8540;SDS011;4308;51.294;6.590;2023-03-15T06:06:40;16.30;;;10.90;;
8540;SDS011;4308;51.294;6.590;2023-03-15T06:09:08;14.13;;;10.13;;
8540;SDS011;4308;51.294;6.590;2023-03-15T06:11:36;17.27;;;11.73;;
8540;SDS011;4308;51.294;6.590;2023-03-15T06:14:03;14.77;;;10.53;;
8540;SDS011;4308;51.294;6.590;2023-03-15T06:16:31;20.03;;;11.80;;
8540;SDS011;4308;51.294;6.590;2023-03-15T06:18:59;18.67;;;11.70;;
8540;SDS011;4308;51.294;6.590;2023-03-15T06:21:26;16.47;;;10.70;;
8540;SDS011;4308;51.294;6.590;2023-03-15T06:23:54;17.87;;;11.83;;
8540;SDS011;4308;51.294;6.590;2023-03-15T06:26:21;16.53;;;10.97;;
8540;SDS011;4308;51.294;6.590;2023-03-15T06:28:49;18.00;;;11.20;;
8540;SDS011;4308;51.294;6.590;2023-03-15T06:31:16;17.97;;;11.53;;
8540;SDS011;4308;51.294;6.590;2023-03-15T06:33:44;17.10;;;11.77;;
8540;SDS011;4308;51.294;6.590;2023-03-15T06:36:12;17.67;;;11.37;;
8540;SDS011;4308;51.294;6.590;2023-03-15T06:38:39;16.70;;;11.63;;
8540;SDS011;4308;51.294;6.590;2023-03-15T06:41:07;21.43;;;11.57;;
8540;SDS011;4308;51.294;6.590;2023-03-15T06:43:35;17.07;;;12.07;;
8540;SDS011;4308;51.294;6.590;2023-03-15T06:46:03;18.00;;;11.97;;
8540;SDS011;4308;51.294;6.590;2023-03-15T06:48:30;17.57;;;11.10;;
8540;SDS011;4308;51.294;6.590;2023-03-15T06:50:58;16.10;;;10.37;;
8540;SDS011;4308;51.294;6.590;2023-03-15T06:53:26;13.90;;;10.37;;
8540;SDS011;4308;51.294;6.590;2023-03-15T06:55:53;16.50;;;9.37;;
8540;SDS011;4308;51.294;6.590;2023-03-15T06:58:21;15.50;;;9.80;;
8540;SDS011;4308;51.294;6.590;2023-03-15T07:00:48;14.50;;;9.43;;
8540;SDS011;4308;51.294;6.590;2023-03-15T07:03:16;14.80;;;9.00;;
8540;SDS011;4308;51.294;6.590;2023-03-15T07:05:44;16.33;;;10.20;;
8540;SDS011;4308;51.294;6.590;2023-03-15T07:08:11;17.83;;;11.07;;
8540;SDS011;4308;51.294;6.590;2023-03-15T07:10:39;13.73;;;9.50;;
8540;SDS011;4308;51.294;6.590;2023-03-15T07:13:06;11.57;;;8.40;;
8540;SDS011;4308;51.294;6.590;2023-03-15T07:15:34;13.73;;;8.80;;
8540;SDS011;4308;51.294;6.590;2023-03-15T07:18:02;13.40;;;8.20;;
8540;SDS011;4308;51.294;6.590;2023-03-15T07:20:30;12.50;;;8.33;;
8540;SDS011;4308;51.294;6.590;2023-03-15T07:22:57;18.20;;;8.90;;
8540;SDS011;4308;51.294;6.590;2023-03-15T07:25:25;9.87;;;6.60;;
8540;SDS011;4308;51.294;6.590;2023-03-15T07:27:52;14.10;;;8.07;;
8540;SDS011;4308;51.294;6.590;2023-03-15T07:30:20;14.20;;;7.80;;
8540;SDS011;4308;51.294;6.590;2023-03-15T07:32:48;12.37;;;7.50;;
8540;SDS011;4308;51.294;6.590;2023-03-15T07:35:15;15.83;;;8.10;;
8540;SDS011;4308;51.294;6.590;2023-03-15T07:37:43;18.40;;;10.67;;
8540;SDS011;4308;51.294;6.590;2023-03-15T07:40:11;12.53;;;8.10;;
8540;SDS011;4308;51.294;6.590;2023-03-15T07:42:39;12.93;;;7.63;;
8540;SDS011;4308;51.294;6.590;2023-03-15T07:45:06;9.87;;;6.83;;
8540;SDS011;4308;51.294;6.590;2023-03-15T07:47:34;15.23;;;7.83;;
8540;SDS011;4308;51.294;6.590;2023-03-15T07:50:02;11.37;;;6.80;;
8540;SDS011;4308;51.294;6.590;2023-03-15T07:52:30;12.50;;;7.43;;
8540;SDS011;4308;51.294;6.590;2023-03-15T07:54:58;11.63;;;7.07;;
8540;SDS011;4308;51.294;6.590;2023-03-15T07:57:25;11.83;;;6.07;;
8540;SDS011;4308;51.294;6.590;2023-03-15T07:59:54;12.90;;;7.03;;
8540;SDS011;4308;51.294;6.590;2023-03-15T08:02:22;12.63;;;6.70;;
8540;SDS011;4308;51.294;6.590;2023-03-15T08:04:49;12.33;;;7.37;;
8540;SDS011;4308;51.294;6.590;2023-03-15T08:07:17;15.20;;;6.33;;
8540;SDS011;4308;51.294;6.590;2023-03-15T08:09:44;10.00;;;6.17;;
8540;SDS011;4308;51.294;6.590;2023-03-15T08:12:12;9.57;;;5.40;;
8540;SDS011;4308;51.294;6.590;2023-03-15T08:14:40;10.43;;;7.28;;
8540;SDS011;4308;51.294;6.590;2023-03-15T08:17:07;12.73;;;6.70;;
8540;SDS011;4308;51.294;6.590;2023-03-15T08:19:35;10.37;;;5.67;;
8540;SDS011;4308;51.294;6.590;2023-03-15T08:22:03;9.27;;;5.80;;
8540;SDS011;4308;51.294;6.590;2023-03-15T08:24:30;11.60;;;6.20;;
8540;SDS011;4308;51.294;6.590;2023-03-15T08:26:58;11.10;;;5.87;;
8540;SDS011;4308;51.294;6.590;2023-03-15T08:29:25;11.47;;;7.10;;
8540;SDS011;4308;51.294;6.590;2023-03-15T08:31:53;13.17;;;7.33;;
8540;SDS011;4308;51.294;6.590;2023-03-15T08:34:21;16.33;;;7.13;;
8540;SDS011;4308;51.294;6.590;2023-03-15T08:36:49;11.90;;;8.13;;
8540;SDS011;4308;51.294;6.590;2023-03-15T08:39:17;10.77;;;6.93;;
8540;SDS011;4308;51.294;6.590;2023-03-15T08:41:44;11.10;;;7.07;;
8540;SDS011;4308;51.294;6.590;2023-03-15T08:44:12;14.17;;;6.50;;
8540;SDS011;4308;51.294;6.590;2023-03-15T08:46:39;9.07;;;5.67;;
8540;SDS011;4308;51.294;6.590;2023-03-15T08:49:07;9.40;;;6.03;;
8540;SDS011;4308;51.294;6.590;2023-03-15T08:51:34;12.50;;;6.70;;
8540;SDS011;4308;51.294;6.590;2023-03-15T08:54:02;11.33;;;5.80;;
8540;SDS011;4308;51.294;6.590;2023-03-15T08:56:29;12.83;;;6.13;;
8540;SDS011;4308;51.294;6.590;2023-03-15T08:58:57;11.10;;;6.37;;
8540;SDS011;4308;51.294;6.590;2023-03-15T09:01:25;9.70;;;5.93;;
8540;SDS011;4308;51.294;6.590;2023-03-15T09:03:52;11.83;;;6.37;;
8540;SDS011;4308;51.294;6.590;2023-03-15T09:06:20;11.03;;;6.30;;
8540;SDS011;4308;51.294;6.590;2023-03-15T09:08:47;10.53;;;6.13;;
8540;SDS011;4308;51.294;6.590;2023-03-15T09:11:15;18.73;;;6.73;;
8540;SDS011;4308;51.294;6.590;2023-03-15T09:13:43;11.13;;;6.13;;
8540;SDS011;4308;51.294;6.590;2023-03-15T09:16:10;11.97;;;6.90;;
8540;SDS011;4308;51.294;6.590;2023-03-15T09:18:38;10.77;;;6.03;;
8540;SDS011;4308;51.294;6.590;2023-03-15T09:21:05;11.20;;;5.70;;
8540;SDS011;4308;51.294;6.590;2023-03-15T09:23:33;17.73;;;6.20;;
8540;SDS011;4308;51.294;6.590;2023-03-15T09:26:01;10.83;;;6.13;;
8540;SDS011;4308;51.294;6.590;2023-03-15T09:28:28;11.33;;;6.60;;
8540;SDS011;4308;51.294;6.590;2023-03-15T09:30:56;10.13;;;6.60;;
8540;SDS011;4308;51.294;6.590;2023-03-15T09:33:25;10.60;;;5.83;;
8540;SDS011;4308;51.294;6.590;2023-03-15T09:35:53;9.83;;;5.87;;
8540;SDS011;4308;51.294;6.590;2023-03-15T09:38:20;11.80;;;6.40;;
8540;SDS011;4308;51.294;6.590;2023-03-15T09:40:48;11.00;;;6.73;;
8540;SDS011;4308;51.294;6.590;2023-03-15T09:43:26;9.70;;;5.80;;
8540;SDS011;4308;51.294;6.590;2023-03-15T09:49:46;10.10;;;6.23;;
8540;SDS011;4308;51.294;6.590;2023-03-15T09:51:54;15.17;;;6.37;;
8540;SDS011;4308;51.294;6.590;2023-03-15T09:54:24;11.27;;;6.30;;
8540;SDS011;4308;51.294;6.590;2023-03-15T09:57:01;9.77;;;5.33;;
8540;SDS011;4308;51.294;6.590;2023-03-15T09:59:33;9.03;;;5.63;;
8540;SDS011;4308;51.294;6.590;2023-03-15T10:02:03;9.47;;;4.97;;
8540;SDS011;4308;51.294;6.590;2023-03-15T10:04:38;9.83;;;3.90;;
8540;SDS011;4308;51.294;6.590;2023-03-15T10:07:10;9.93;;;4.43;;
8540;SDS011;4308;51.294;6.590;2023-03-15T10:09:38;7.83;;;4.77;;
8540;SDS011;4308;51.294;6.590;2023-03-15T10:12:50;10.03;;;5.00;;
8540;SDS011;4308;51.294;6.590;2023-03-15T10:15:40;9.67;;;5.57;;
8540;SDS011;4308;51.294;6.590;2023-03-15T10:20:35;8.30;;;4.27;;
8540;SDS011;4308;51.294;6.590;2023-03-15T10:25:39;10.03;;;5.53;;
8540;SDS011;4308;51.294;6.590;2023-03-15T10:30:35;12.57;;;5.10;;
8540;SDS011;4308;51.294;6.590;2023-03-15T10:33:05;9.60;;;4.33;;
8540;SDS011;4308;51.294;6.590;2023-03-15T10:35:40;9.53;;;4.30;;
8540;SDS011;4308;51.294;6.590;2023-03-15T10:38:17;6.80;;;3.10;;
8540;SDS011;4308;51.294;6.590;2023-03-15T10:40:46;5.40;;;2.87;;
8540;SDS011;4308;51.294;6.590;2023-03-15T10:48:55;7.90;;;2.73;;
8540;SDS011;4308;51.294;6.590;2023-03-15T10:53:56;9.83;;;3.10;;
8540;SDS011;4308;51.294;6.590;2023-03-15T10:56:25;10.03;;;3.27;;
8540;SDS011;4308;51.294;6.590;2023-03-15T10:58:54;6.67;;;2.90;;
8540;SDS011;4308;51.294;6.590;2023-03-15T11:01:38;8.00;;;3.10;;
8540;SDS011;4308;51.294;6.590;2023-03-15T11:04:12;7.20;;;2.67;;
8540;SDS011;4308;51.294;6.590;2023-03-15T11:06:45;8.33;;;2.63;;
8540;SDS011;4308;51.294;6.590;2023-03-15T11:09:17;7.47;;;3.07;;
8540;SDS011;4308;51.294;6.590;2023-03-15T11:11:52;5.53;;;2.87;;
8540;SDS011;4308;51.294;6.590;2023-03-15T11:14:20;6.33;;;2.73;;
8540;SDS011;4308;51.294;6.590;2023-03-15T11:16:49;8.20;;;2.63;;
8540;SDS011;4308;51.294;6.590;2023-03-15T11:19:19;7.87;;;2.93;;
8540;SDS011;4308;51.294;6.590;2023-03-15T11:21:48;9.13;;;2.70;;
8540;SDS011;4308;51.294;6.590;2023-03-15T11:24:27;7.30;;;2.50;;
8540;SDS011;4308;51.294;6.590;2023-03-15T11:26:56;5.63;;;2.40;;
8540;SDS011;4308;51.294;6.590;2023-03-15T11:29:26;7.97;;;2.50;;
8540;SDS011;4308;51.294;6.590;2023-03-15T11:31:54;6.33;;;2.43;;
8540;SDS011;4308;51.294;6.590;2023-03-15T11:37:13;7.27;;;2.87;;
8540;SDS011;4308;51.294;6.590;2023-03-15T11:42:28;7.07;;;2.57;;
8540;SDS011;4308;51.294;6.590;2023-03-15T11:44:57;9.33;;;2.37;;
8540;SDS011;4308;51.294;6.590;2023-03-15T11:50:28;8.27;;;2.50;;
8540;SDS011;4308;51.294;6.590;2023-03-15T11:52:55;7.63;;;3.53;;
8540;SDS011;4308;51.294;6.590;2023-03-15T11:55:24;5.77;;;2.20;;
8540;SDS011;4308;51.294;6.590;2023-03-15T11:57:52;7.37;;;2.57;;
8540;SDS011;4308;51.294;6.590;2023-03-15T12:00:47;6.50;;;2.47;;
8540;SDS011;4308;51.294;6.590;2023-03-15T12:05:50;10.50;;;2.30;;
8540;SDS011;4308;51.294;6.590;2023-03-15T12:11:38;4.93;;;2.17;;
8540;SDS011;4308;51.294;6.590;2023-03-15T12:16:27;5.83;;;1.97;;
8540;SDS011;4308;51.294;6.590;2023-03-15T12:19:02;7.50;;;2.07;;
8540;SDS011;4308;51.294;6.590;2023-03-15T12:21:38;4.37;;;2.37;;
8540;SDS011;4308;51.294;6.590;2023-03-15T12:24:07;4.63;;;2.63;;
8540;SDS011;4308;51.294;6.590;2023-03-15T12:26:41;6.87;;;2.00;;
8540;SDS011;4308;51.294;6.590;2023-03-15T12:34:12;5.47;;;2.10;;
8540;SDS011;4308;51.294;6.590;2023-03-15T12:36:43;5.63;;;2.77;;
8540;SDS011;4308;51.294;6.590;2023-03-15T12:41:43;4.90;;;2.20;;
8540;SDS011;4308;51.294;6.590;2023-03-15T12:47:04;8.37;;;2.47;;
8540;SDS011;4308;51.294;6.590;2023-03-15T12:49:33;6.40;;;2.40;;
8540;SDS011;4308;51.294;6.590;2023-03-15T12:52:02;4.60;;;2.20;;
8540;SDS011;4308;51.294;6.590;2023-03-15T12:57:02;6.53;;;2.40;;
8540;SDS011;4308;51.294;6.590;2023-03-15T13:02:07;5.23;;;3.13;;
8540;SDS011;4308;51.294;6.590;2023-03-15T13:04:43;5.97;;;2.23;;
8540;SDS011;4308;51.294;6.590;2023-03-15T13:07:21;5.60;;;1.97;;
8540;SDS011;4308;51.294;6.590;2023-03-15T13:10:06;3.73;;;1.87;;
8540;SDS011;4308;51.294;6.590;2023-03-15T13:12:44;5.73;;;2.00;;
8540;SDS011;4308;51.294;6.590;2023-03-15T13:17:56;6.97;;;2.03;;
8540;SDS011;4308;51.294;6.590;2023-03-15T13:20:31;7.87;;;1.90;;
8540;SDS011;4308;51.294;6.590;2023-03-15T13:25:39;8.67;;;2.37;;
8540;SDS011;4308;51.294;6.590;2023-03-15T13:30:45;5.47;;;1.77;;
8540;SDS011;4308;51.294;6.590;2023-03-15T13:33:26;4.67;;;2.27;;
8540;SDS011;4308;51.294;6.590;2023-03-15T13:40:53;4.50;;;1.83;;
8540;SDS011;4308;51.294;6.590;2023-03-15T13:43:25;4.33;;;1.90;;
8540;SDS011;4308;51.294;6.590;2023-03-15T13:45:55;4.67;;;1.80;;
8540;SDS011;4308;51.294;6.590;2023-03-15T13:48:26;5.80;;;2.00;;
8540;SDS011;4308;51.294;6.590;2023-03-15T13:50:54;3.13;;;1.57;;
8540;SDS011;4308;51.294;6.590;2023-03-15T13:53:23;4.27;;;1.73;;
8540;SDS011;4308;51.294;6.590;2023-03-15T13:56:14;4.77;;;1.97;;
8540;SDS011;4308;51.294;6.590;2023-03-15T13:58:43;4.90;;;1.87;;
8540;SDS011;4308;51.294;6.590;2023-03-15T14:01:12;4.73;;;1.70;;
8540;SDS011;4308;51.294;6.590;2023-03-15T14:03:40;3.03;;;1.53;;
8540;SDS011;4308;51.294;6.590;2023-03-15T14:06:12;8.00;;;1.77;;
8540;SDS011;4308;51.294;6.590;2023-03-15T14:08:46;4.23;;;1.83;;
8540;SDS011;4308;51.294;6.590;2023-03-15T14:11:18;7.57;;;1.77;;
8540;SDS011;4308;51.294;6.590;2023-03-15T14:16:14;5.47;;;1.93;;
8540;SDS011;4308;51.294;6.590;2023-03-15T14:18:42;2.63;;;1.80;;
8540;SDS011;4308;51.294;6.590;2023-03-15T14:21:12;4.47;;;1.50;;
8540;SDS011;4308;51.294;6.590;2023-03-15T14:23:42;4.67;;;1.80;;
8540;SDS011;4308;51.294;6.590;2023-03-15T14:26:11;2.53;;;1.27;;
8540;SDS011;4308;51.294;6.590;2023-03-15T14:28:40;5.90;;;1.80;;
8540;SDS011;4308;51.294;6.590;2023-03-15T14:31:11;5.60;;;1.77;;
8540;SDS011;4308;51.294;6.590;2023-03-15T14:33:50;2.73;;;1.50;;
8540;SDS011;4308;51.294;6.590;2023-03-15T14:36:32;5.17;;;1.97;;
8540;SDS011;4308;51.294;6.590;2023-03-15T14:39:00;2.30;;;1.33;;
8540;SDS011;4308;51.294;6.590;2023-03-15T14:43:55;4.93;;;1.70;;
8540;SDS011;4308;51.294;6.590;2023-03-15T14:46:23;4.20;;;1.30;;
8540;SDS011;4308;51.294;6.590;2023-03-15T14:48:50;6.30;;;2.00;;
8540;SDS011;4308;51.294;6.590;2023-03-15T14:51:19;4.57;;;1.80;;
8540;SDS011;4308;51.294;6.590;2023-03-15T14:53:47;5.23;;;1.50;;
8540;SDS011;4308;51.294;6.590;2023-03-15T14:56:15;5.17;;;1.80;;
8540;SDS011;4308;51.294;6.590;2023-03-15T14:58:45;3.47;;;1.60;;
8540;SDS011;4308;51.294;6.590;2023-03-15T15:01:13;4.63;;;1.60;;
8540;SDS011;4308;51.294;6.590;2023-03-15T15:03:44;4.83;;;1.70;;
8540;SDS011;4308;51.294;6.590;2023-03-15T15:06:13;3.63;;;1.40;;
8540;SDS011;4308;51.294;6.590;2023-03-15T15:08:44;6.30;;;1.87;;
8540;SDS011;4308;51.294;6.590;2023-03-15T15:11:13;2.73;;;1.40;;
8540;SDS011;4308;51.294;6.590;2023-03-15T15:13:41;7.00;;;3.27;;
8540;SDS011;4308;51.294;6.590;2023-03-15T15:16:09;5.47;;;1.87;;
8540;SDS011;4308;51.294;6.590;2023-03-15T15:18:36;4.93;;;2.00;;
8540;SDS011;4308;51.294;6.590;2023-03-15T15:21:23;7.17;;;1.47;;
8540;SDS011;4308;51.294;6.590;2023-03-15T15:23:52;4.60;;;1.40;;
8540;SDS011;4308;51.294;6.590;2023-03-15T15:26:26;2.73;;;1.67;;
8540;SDS011;4308;51.294;6.590;2023-03-15T15:28:54;5.50;;;1.43;;
8540;SDS011;4308;51.294;6.590;2023-03-15T15:31:22;4.40;;;1.33;;
8540;SDS011;4308;51.294;6.590;2023-03-15T15:33:50;4.33;;;1.60;;
8540;SDS011;4308;51.294;6.590;2023-03-15T15:36:20;4.57;;;1.33;;
8540;SDS011;4308;51.294;6.590;2023-03-15T15:38:49;3.20;;;1.43;;
8540;SDS011;4308;51.294;6.590;2023-03-15T15:41:24;5.73;;;1.63;;
8540;SDS011;4308;51.294;6.590;2023-03-15T15:43:52;3.80;;;1.30;;
8540;SDS011;4308;51.294;6.590;2023-03-15T15:46:20;5.27;;;1.70;;
8540;SDS011;4308;51.294;6.590;2023-03-15T15:48:48;3.30;;;1.50;;
8540;SDS011;4308;51.294;6.590;2023-03-15T15:51:24;2.57;;;1.40;;
8540;SDS011;4308;51.294;6.590;2023-03-15T15:53:52;3.40;;;1.50;;
8540;SDS011;4308;51.294;6.590;2023-03-15T15:56:21;5.20;;;1.30;;
8540;SDS011;4308;51.294;6.590;2023-03-15T15:58:51;3.77;;;1.80;;
8540;SDS011;4308;51.294;6.590;2023-03-15T16:01:19;5.13;;;2.23;;
8540;SDS011;4308;51.294;6.590;2023-03-15T16:03:47;5.27;;;2.33;;
8540;SDS011;4308;51.294;6.590;2023-03-15T16:06:18;4.90;;;2.17;;
8540;SDS011;4308;51.294;6.590;2023-03-15T16:08:46;4.20;;;1.60;;
8540;SDS011;4308;51.294;6.590;2023-03-15T16:11:15;4.07;;;1.57;;
8540;SDS011;4308;51.294;6.590;2023-03-15T16:13:43;4.23;;;1.93;;
8540;SDS011;4308;51.294;6.590;2023-03-15T16:16:12;4.77;;;1.57;;
8540;SDS011;4308;51.294;6.590;2023-03-15T16:18:40;4.67;;;1.37;;
8540;SDS011;4308;51.294;6.590;2023-03-15T16:21:12;2.20;;;1.60;;
8540;SDS011;4308;51.294;6.590;2023-03-15T16:23:40;6.03;;;1.97;;
8540;SDS011;4308;51.294;6.590;2023-03-15T16:26:09;5.40;;;1.90;;
8540;SDS011;4308;51.294;6.590;2023-03-15T16:28:38;5.50;;;1.70;;
8540;SDS011;4308;51.294;6.590;2023-03-15T16:31:06;4.77;;;1.37;;
8540;SDS011;4308;51.294;6.590;2023-03-15T16:33:34;2.73;;;1.40;;
8540;SDS011;4308;51.294;6.590;2023-03-15T16:36:01;2.47;;;1.33;;
8540;SDS011;4308;51.294;6.590;2023-03-15T16:38:30;4.57;;;1.80;;
8540;SDS011;4308;51.294;6.590;2023-03-15T16:40:58;3.30;;;1.47;;